Time;durP1;ratioP1;P1;durP2;ratioP2;P2;SDS_P1;SDS_P2;PMS_P1;PMS_P2;Temp;Humidity;BMP_temperature;BMP_pressure;BME280_temperature;BME280_humidity;BME280_pressure;Samples;Min_cycle;Max_cycle;Signal;HPM_P1;HPM_P2
2022/04/06 00:03:06;;;;;;;9.02;6.03;;;9.60;73.90;;;;;;2328155;57;22092;-74
2022/04/06 00:05:33;;;;;;;9.85;6.03;;;9.60;74.80;;;;;;2346574;57;21097;-74
2022/04/06 00:08:00;;;;;;;9.02;6.32;;;9.60;74.10;;;;;;2593539;53;21611;-75
2022/04/06 00:10:29;;;;;;;9.57;6.28;;;9.60;74.10;;;;;;2346871;57;21041;-75
2022/04/06 00:12:57;;;;;;;11.82;7.03;;;9.60;74.20;;;;;;2346783;57;21093;-74
2022/04/06 00:15:24;;;;;;;9.73;6.32;;;9.60;73.80;;;;;;2346020;57;21113;-74
2022/04/06 00:20:28;;;;;;;11.55;6.93;;;9.70;74.20;;;;;;2355234;57;22050;-74
2022/04/06 00:22:55;;;;;;;9.88;6.20;;;9.60;74.10;;;;;;2347125;57;21193;-75
2022/04/06 00:25:22;;;;;;;10.73;6.05;;;9.60;74.20;;;;;;2354432;56;21102;-75
2022/04/06 00:27:50;;;;;;;11.63;6.93;;;9.60;74.40;;;;;;2375160;56;21049;-75
2022/04/06 00:30:17;;;;;;;11.35;7.47;;;9.60;74.50;;;;;;2375397;56;21085;-75
2022/04/06 00:32:44;;;;;;;11.77;7.75;;;9.70;74.50;;;;;;2374517;56;21153;-75
2022/04/06 00:37:48;;;;;;;13.75;7.97;;;9.70;74.40;;;;;;2355757;57;22089;-75
2022/04/06 00:40:15;;;;;;;11.93;7.93;;;9.70;74.50;;;;;;2347446;57;21180;-75
2022/04/06 00:42:42;;;;;;;12.05;8.05;;;9.70;74.70;;;;;;2347709;57;21053;-75
2022/04/06 00:45:10;;;;;;;15.27;9.18;;;9.80;74.70;;;;;;2351959;56;21522;-75
2022/04/06 00:47:37;;;;;;;13.80;8.15;;;9.80;74.80;;;;;;2374874;56;21109;-75
2022/04/06 01:03:49;;;;;;;16.92;9.45;;;9.70;75.40;;;;;;2375406;56;20983;-74
2022/04/06 01:06:16;;;;;;;14.23;8.25;;;9.70;75.70;;;;;;2372837;56;21603;-73
2022/04/06 01:08:44;;;;;;;10.10;6.37;;;9.60;76.30;;;;;;2373328;56;21086;-74
2022/04/06 01:11:11;;;;;;;10.23;6.80;;;9.70;77.70;;;;;;2374371;56;21055;-74
2022/04/06 01:13:39;;;;;;;10.57;6.25;;;9.70;76.90;;;;;;2374644;56;21039;-74
2022/04/06 01:16:06;;;;;;;10.75;6.60;;;9.80;77.60;;;;;;2374665;56;21087;-74
2022/04/06 01:18:33;;;;;;;9.90;6.47;;;9.80;78.40;;;;;;2374500;56;21130;-74
2022/04/06 01:21:01;;;;;;;7.97;5.37;;;9.90;78.60;;;;;;2372673;56;21142;-74
2022/04/06 01:23:28;;;;;;;6.37;4.37;;;9.90;79.20;;;;;;2374011;56;21632;-74
2022/04/06 01:25:55;;;;;;;9.95;5.68;;;10.00;77.00;;;;;;2373824;56;21038;-75
2022/04/06 01:28:24;;;;;;;5.80;4.30;;;10.00;78.60;;;;;;2374081;56;21522;-74
2022/04/06 01:30:51;;;;;;;7.07;5.18;;;10.10;77.60;;;;;;2627591;52;21051;-74
2022/04/06 01:33:18;;;;;;;6.80;4.22;;;10.10;79.10;;;;;;2374537;56;21122;-74
2022/04/06 01:35:47;;;;;;;7.68;4.70;;;10.10;79.40;;;;;;2374309;56;21110;-74
2022/04/06 01:38:15;;;;;;;7.72;4.43;;;10.20;79.90;;;;;;2628041;52;21102;-74
2022/04/06 01:40:42;;;;;;;6.78;4.32;;;10.20;79.10;;;;;;2374232;56;21121;-74
2022/04/06 01:43:10;;;;;;;6.03;4.00;;;10.20;79.90;;;;;;2375144;56;21529;-74
2022/04/06 01:45:38;;;;;;;5.15;3.67;;;10.30;79.80;;;;;;2373398;56;21035;-74
2022/04/06 01:48:06;;;;;;;5.28;4.05;;;10.30;80.10;;;;;;2373973;56;21042;-73
2022/04/06 01:53:19;;;;;;;4.65;3.58;;;10.30;80.00;;;;;;2373752;56;21067;-72
2022/04/06 01:55:46;;;;;;;5.68;4.10;;;10.30;80.40;;;;;;2372543;56;21082;-74
2022/04/06 01:58:14;;;;;;;7.18;3.72;;;10.40;80.90;;;;;;2343225;54;21070;-72
2022/04/06 02:00:42;;;;;;;3.90;3.17;;;10.40;79.70;;;;;;2341313;54;21050;-74
2022/04/06 02:03:09;;;;;;;4.53;2.90;;;10.40;79.50;;;;;;2302769;58;21177;-74
2022/04/06 02:05:37;;;;;;;5.87;3.22;;;10.40;79.00;;;;;;2301369;58;21134;-73
2022/04/06 02:08:06;;;;;;;5.20;3.65;;;10.40;80.00;;;;;;2301287;58;21138;-73
2022/04/06 02:10:34;;;;;;;6.57;3.75;;;10.40;80.00;;;;;;2301442;58;21074;-74
2022/04/06 02:13:02;;;;;;;4.72;3.83;;;10.50;79.70;;;;;;2301726;58;21063;-74
2022/04/06 02:39:04;;;;;;;2.70;2.37;;;10.40;78.90;;;;;;2301637;54;21071;-71
2022/04/06 02:44:08;;;;;;;4.43;2.80;;;10.40;78.70;;;;;;2328259;57;22138;-71
2022/04/06 02:46:35;;;;;;;5.32;3.28;;;10.40;78.50;;;;;;2346231;57;21040;-73
2022/04/06 02:49:04;;;;;;;3.22;2.58;;;10.40;78.70;;;;;;2345717;57;21045;-73
2022/04/06 02:51:32;;;;;;;5.90;3.25;;;10.50;78.80;;;;;;2346037;57;21040;-73
2022/04/06 02:53:59;;;;;;;7.65;3.72;;;10.40;78.90;;;;;;2346528;57;21048;-73
2022/04/06 02:56:26;;;;;;;4.97;3.03;;;10.50;78.50;;;;;;2345511;57;22244;-73
2022/04/06 02:58:54;;;;;;;7.10;3.85;;;10.50;77.30;;;;;;2346198;57;21060;-73
2022/04/06 03:01:21;;;;;;;6.62;3.10;;;10.50;79.10;;;;;;2345858;57;21645;-73
2022/04/06 03:03:49;;;;;;;5.75;4.05;;;10.60;78.10;;;;;;2345728;57;21056;-73
2022/04/06 03:06:16;;;;;;;8.30;3.83;;;10.60;78.50;;;;;;2346147;57;21043;-73
2022/04/06 03:08:44;;;;;;;4.95;3.45;;;10.50;78.00;;;;;;2346286;57;21123;-73
2022/04/06 03:11:12;;;;;;;5.62;3.72;;;10.60;77.60;;;;;;2345685;57;21103;-73
2022/04/06 03:13:39;;;;;;;7.90;4.18;;;10.60;77.80;;;;;;2345808;57;21147;-72
2022/04/06 03:16:07;;;;;;;7.18;4.35;;;10.50;77.70;;;;;;2345665;57;21068;-73
2022/04/06 03:18:34;;;;;;;6.22;4.60;;;10.60;77.80;;;;;;2346285;57;21052;-73
2022/04/06 03:21:02;;;;;;;6.12;4.25;;;10.60;77.70;;;;;;2345861;57;21163;-73
2022/04/06 03:23:29;;;;;;;8.90;4.97;;;10.60;77.50;;;;;;2346299;57;21040;-73
2022/04/06 03:25:56;;;;;;;8.63;4.90;;;10.60;77.60;;;;;;2345811;57;21155;-73
2022/04/06 03:28:23;;;;;;;8.18;4.60;;;10.70;77.10;;;;;;2346574;57;21598;-73
2022/04/06 03:30:51;;;;;;;6.80;4.75;;;10.60;77.80;;;;;;2345899;57;21048;-73
2022/04/06 03:43:25;;;;;;;9.63;6.53;;;10.60;76.30;;;;;;2346768;53;21555;-71
2022/04/06 03:45:52;;;;;;;8.10;5.65;;;10.50;77.70;;;;;;2538235;53;21128;-73
2022/04/06 03:48:22;;;;;;;15.77;6.85;;;10.50;77.40;;;;;;2346076;57;21526;-73
2022/04/06 03:50:50;;;;;;;10.02;6.15;;;10.50;77.50;;;;;;2346630;57;21515;-73
2022/04/06 03:53:17;;;;;;;11.98;8.10;;;10.50;77.80;;;;;;2345960;57;21056;-74
2022/04/06 03:55:45;;;;;;;13.88;8.05;;;10.50;78.30;;;;;;2345126;57;21052;-73
2022/04/06 03:58:12;;;;;;;19.17;9.63;;;10.50;78.00;;;;;;2365150;53;21049;-73
2022/04/06 04:00:39;;;;;;;11.27;6.60;;;10.60;78.20;;;;;;2344580;57;21060;-73
2022/04/06 04:03:07;;;;;;;18.77;9.13;;;10.60;76.80;;;;;;2344156;57;21128;-73
2022/04/06 04:05:34;;;;;;;12.70;8.88;;;10.60;77.60;;;;;;2344615;57;21049;-73
2022/04/06 04:08:02;;;;;;;16.55;8.38;;;10.70;78.00;;;;;;2345425;57;21043;-73
2022/04/06 04:10:29;;;;;;;15.63;9.05;;;10.60;77.50;;;;;;2344199;57;21033;-73
2022/04/06 04:12:56;;;;;;;21.27;10.50;;;10.70;76.70;;;;;;2345558;57;21037;-72
2022/04/06 04:15:24;;;;;;;17.83;9.35;;;10.60;77.80;;;;;;2344782;57;21047;-71
2022/04/06 04:17:52;;;;;;;16.58;9.65;;;10.60;77.40;;;;;;2345305;57;21109;-73
2022/04/06 04:20:19;;;;;;;20.48;10.52;;;10.70;77.10;;;;;;2495571;53;21159;-73
2022/04/06 04:22:47;;;;;;;18.08;10.00;;;10.70;77.60;;;;;;2345526;57;21599;-73
2022/04/06 04:25:15;;;;;;;19.12;9.63;;;10.70;77.60;;;;;;2403811;53;21111;-73
2022/04/06 04:27:42;;;;;;;21.35;10.48;;;10.70;78.00;;;;;;2345022;57;21107;-73
2022/04/06 04:30:11;;;;;;;21.80;9.80;;;10.70;77.20;;;;;;2352039;53;21052;-73
2022/04/06 04:32:39;;;;;;;21.67;11.65;;;10.70;77.00;;;;;;2344830;57;21064;-73
2022/04/06 04:35:08;;;;;;;18.67;10.50;;;10.80;76.80;;;;;;2344058;57;21143;-73
2022/04/06 04:37:37;;;;;;;22.70;11.23;;;10.80;77.10;;;;;;2425244;53;21091;-73
2022/04/06 04:40:07;;;;;;;20.45;11.68;;;10.80;77.20;;;;;;2345398;57;21036;-73
2022/04/06 04:42:34;;;;;;;19.37;10.68;;;10.80;77.20;;;;;;2345465;57;21048;-73
2022/04/06 04:45:03;;;;;;;19.23;10.77;;;10.80;76.80;;;;;;2344253;57;21657;-73
2022/04/06 04:47:32;;;;;;;22.17;11.75;;;10.80;76.80;;;;;;2345194;57;21048;-73
2022/04/06 04:49:59;;;;;;;19.10;9.82;;;10.80;76.80;;;;;;2345387;57;21401;-73
2022/04/06 04:52:27;;;;;;;22.30;11.35;;;10.80;76.40;;;;;;2345826;57;21550;-73
2022/04/06 04:54:54;;;;;;;20.40;11.20;;;10.70;77.20;;;;;;2345437;57;21044;-73
2022/04/06 04:57:22;;;;;;;21.83;12.55;;;10.80;77.20;;;;;;2345454;57;21137;-73
2022/04/06 05:02:25;;;;;;;29.98;15.80;;;10.80;77.30;;;;;;2356001;57;22042;-72
2022/04/06 05:04:52;;;;;;;26.55;15.75;;;10.80;76.60;;;;;;2347739;57;21053;-72
2022/04/06 05:07:19;;;;;;;29.37;15.82;;;10.80;76.70;;;;;;2346069;57;21117;-73
2022/04/06 05:09:47;;;;;;;25.17;14.80;;;10.80;77.00;;;;;;2345744;57;21201;-73
2022/04/06 05:12:14;;;;;;;30.73;18.33;;;10.80;77.00;;;;;;2345965;57;21699;-73
2022/04/06 05:14:41;;;;;;;25.48;13.77;;;10.80;77.20;;;;;;2345473;57;21109;-73
2022/04/06 05:17:09;;;;;;;30.40;16.05;;;10.80;77.80;;;;;;2344518;57;21483;-73
2022/04/06 05:19:36;;;;;;;30.27;16.73;;;10.80;77.20;;;;;;2344832;57;21034;-73
2022/04/06 05:22:04;;;;;;;29.45;17.70;;;10.90;77.40;;;;;;2346331;57;21113;-72
2022/04/06 05:24:31;;;;;;;38.55;20.80;;;10.90;77.70;;;;;;2458840;53;21066;-72
2022/04/06 05:27:00;;;;;;;30.45;17.90;;;10.90;78.10;;;;;;2345858;57;21042;-73
2022/04/06 05:29:27;;;;;;;36.97;19.20;;;10.90;77.80;;;;;;2346328;57;21092;-73
2022/04/06 05:31:54;;;;;;;37.95;21.60;;;10.90;77.70;;;;;;2346570;57;21113;-73
2022/04/06 05:34:21;;;;;;;33.55;17.73;;;10.90;77.90;;;;;;2343740;57;21544;-73
2022/04/06 05:36:49;;;;;;;41.78;24.10;;;10.90;77.50;;;;;;2345781;57;21038;-73
2022/04/06 05:39:16;;;;;;;38.95;20.33;;;10.90;77.70;;;;;;2400908;53;21176;-73
2022/04/06 05:41:43;;;;;;;49.30;23.48;;;10.90;77.40;;;;;;2345975;57;21046;-73
2022/04/06 05:44:10;;;;;;;42.58;22.37;;;11.00;77.60;;;;;;2346071;57;21034;-73
2022/04/06 05:46:38;;;;;;;41.22;22.52;;;11.00;77.70;;;;;;2345491;57;21054;-73
2022/04/06 05:49:05;;;;;;;38.63;22.45;;;11.00;78.10;;;;;;2345977;57;21038;-73
2022/04/06 05:51:34;;;;;;;41.75;22.80;;;11.00;78.40;;;;;;2345894;57;21135;-73
2022/04/06 05:54:02;;;;;;;49.25;23.30;;;11.00;78.30;;;;;;2350311;53;21144;-73
2022/04/06 05:56:29;;;;;;;43.35;22.17;;;11.00;78.40;;;;;;2345571;57;21192;-73
2022/04/06 05:58:57;;;;;;;45.25;22.67;;;11.00;77.70;;;;;;2345899;57;21033;-73
2022/04/06 06:01:24;;;;;;;31.50;18.98;;;11.00;77.90;;;;;;2345987;57;21046;-73
2022/04/06 06:03:52;;;;;;;39.97;19.98;;;11.00;78.10;;;;;;2345737;57;21030;-73
2022/04/06 06:06:19;;;;;;;40.90;21.40;;;11.00;77.30;;;;;;2344523;57;21176;-71
2022/04/06 06:08:48;;;;;;;40.05;20.88;;;11.00;77.60;;;;;;2345791;57;21112;-73
2022/04/06 06:11:15;;;;;;;36.85;20.20;;;11.00;77.90;;;;;;2386706;53;21121;-76
2022/04/06 06:13:43;;;;;;;32.35;18.87;;;11.00;78.20;;;;;;2344772;57;21121;-73
2022/04/06 06:16:10;;;;;;;29.05;15.35;;;11.00;78.00;;;;;;2384937;53;21132;-73
2022/04/06 06:18:37;;;;;;;35.22;18.27;;;11.10;77.50;;;;;;2344787;57;21050;-73
2022/04/06 06:21:05;;;;;;;31.65;17.25;;;11.10;78.10;;;;;;2344773;57;21046;-73
2022/04/06 06:23:33;;;;;;;37.30;18.25;;;11.10;78.00;;;;;;2344477;57;21097;-74
2022/04/06 06:26:01;;;;;;;22.80;15.00;;;11.10;77.70;;;;;;2344158;57;21537;-74
2022/04/06 06:28:28;;;;;;;31.40;15.60;;;11.10;77.40;;;;;;2344561;57;21556;-74
2022/04/06 06:30:55;;;;;;;32.28;15.63;;;11.20;76.10;;;;;;2344568;57;21105;-74
2022/04/06 06:33:22;;;;;;;27.73;13.43;;;11.20;77.00;;;;;;2344981;57;21050;-73
2022/04/06 06:35:49;;;;;;;25.52;13.62;;;11.20;76.60;;;;;;2353500;53;21046;-74
2022/04/06 06:38:17;;;;;;;30.60;15.52;;;11.20;76.80;;;;;;2345047;57;21110;-74
2022/04/06 06:40:46;;;;;;;22.25;12.48;;;11.20;75.90;;;;;;2344961;57;21129;-74
2022/04/06 06:43:13;;;;;;;26.02;12.27;;;11.20;75.60;;;;;;2345453;57;21050;-74
2022/04/06 06:45:41;;;;;;;25.40;13.32;;;11.20;76.80;;;;;;2344485;57;21572;-74
2022/04/06 06:48:09;;;;;;;33.78;13.30;;;11.20;76.30;;;;;;2345381;57;21652;-74
2022/04/06 06:50:37;;;;;;;31.85;12.80;;;11.30;75.90;;;;;;2343331;57;21014;-74
2022/04/06 06:53:05;;;;;;;25.65;12.07;;;11.30;77.10;;;;;;2345313;57;21018;-74
2022/04/06 06:55:32;;;;;;;24.08;11.05;;;11.20;76.40;;;;;;2344245;57;21030;-74
2022/04/06 06:57:59;;;;;;;31.73;14.40;;;11.30;76.50;;;;;;2345183;57;21046;-74
2022/04/06 07:00:27;;;;;;;20.92;10.88;;;11.20;76.00;;;;;;2345217;57;21034;-73
2022/04/06 07:02:55;;;;;;;27.52;12.20;;;11.30;76.10;;;;;;2345206;57;21176;-74
2022/04/06 07:05:22;;;;;;;23.62;11.60;;;11.30;75.90;;;;;;2344547;57;21117;-74
2022/04/06 07:10:30;;;;;;;35.17;12.95;;;11.40;75.20;;;;;;2327617;57;22060;-72
2022/04/06 07:12:59;;;;;;;23.38;9.88;;;11.40;76.40;;;;;;2347665;57;21121;-72
2022/04/06 07:15:26;;;;;;;19.75;10.45;;;11.40;76.20;;;;;;2346881;57;21081;-73
2022/04/06 07:17:55;;;;;;;27.60;13.20;;;11.40;76.20;;;;;;2347013;57;21100;-73
2022/04/06 07:20:23;;;;;;;23.27;10.65;;;11.40;76.10;;;;;;2370082;53;21089;-73
2022/04/06 07:22:51;;;;;;;22.85;10.52;;;11.40;75.70;;;;;;2355820;53;21026;-73
2022/04/06 07:27:54;;;;;;;26.67;10.20;;;11.50;75.70;;;;;;2328357;57;22027;-72
2022/04/06 07:30:22;;;;;;;20.33;10.20;;;11.50;75.50;;;;;;2347524;57;21058;-73
2022/04/06 07:32:49;;;;;;;21.58;11.60;;;11.50;75.40;;;;;;2347508;57;21117;-73
2022/04/06 07:35:17;;;;;;;23.98;11.60;;;11.50;75.50;;;;;;2347299;57;21132;-73
2022/04/06 07:37:47;;;;;;;23.80;11.20;;;11.60;75.80;;;;;;2347748;57;21030;-73
2022/04/06 07:42:51;;;;;;;27.10;15.10;;;11.60;75.60;;;;;;2336197;57;27764;-73
2022/04/06 07:45:20;;;;;;;29.33;13.10;;;11.60;78.30;;;;;;2346840;57;21069;-73
2022/04/06 07:47:49;;;;;;;25.08;13.10;;;11.60;76.00;;;;;;2346017;57;21058;-73
2022/04/06 07:50:17;;;;;;;20.17;10.52;;;11.70;75.60;;;;;;2345980;57;21034;-73
2022/04/06 07:52:45;;;;;;;21.05;10.73;;;11.70;74.10;;;;;;2346127;57;21042;-73
2022/04/06 07:55:13;;;;;;;23.40;12.88;;;11.70;73.00;;;;;;2344887;57;21018;-73
2022/04/06 07:57:40;;;;;;;27.20;12.57;;;11.80;73.80;;;;;;2463565;52;21588;-73
2022/04/06 08:00:11;;;;;;;21.87;12.25;;;11.80;74.00;;;;;;2377206;56;21036;-74
2022/04/06 08:02:39;;;;;;;26.33;12.02;;;11.80;73.50;;;;;;2377470;56;21512;-73
2022/04/06 08:05:07;;;;;;;23.62;12.35;;;11.80;74.00;;;;;;2374816;56;21070;-73
2022/04/06 08:07:39;;;;;;;26.80;13.02;;;11.80;73.60;;;;;;2374681;56;21599;-74
2022/04/06 08:10:09;;;;;;;25.02;13.20;;;11.80;73.60;;;;;;2629830;52;21038;-74
2022/04/06 08:12:36;;;;;;;27.17;13.93;;;11.80;74.00;;;;;;2374288;56;21601;-73
2022/04/06 08:15:04;;;;;;;21.75;10.30;;;11.80;73.50;;;;;;2375131;56;21074;-74
2022/04/06 08:17:33;;;;;;;24.85;12.82;;;11.80;73.60;;;;;;2375020;56;21537;-73
2022/04/06 08:20:00;;;;;;;20.00;12.55;;;11.80;73.30;;;;;;2375263;56;21051;-75
2022/04/06 08:22:28;;;;;;;25.58;12.40;;;11.80;73.80;;;;;;2629775;52;21083;-73
2022/04/06 08:24:55;;;;;;;22.17;12.15;;;11.80;73.80;;;;;;2373978;56;21166;-74
2022/04/06 08:27:22;;;;;;;25.92;13.07;;;11.80;73.80;;;;;;2375299;56;21090;-73
2022/04/06 08:29:49;;;;;;;22.48;13.43;;;11.80;74.20;;;;;;2375189;56;21170;-73
2022/04/06 08:32:18;;;;;;;22.70;13.45;;;11.80;73.90;;;;;;2375556;56;21043;-74
2022/04/06 08:34:45;;;;;;;25.10;13.18;;;11.80;74.30;;;;;;2375278;56;21031;-73
2022/04/06 08:37:12;;;;;;;29.20;14.68;;;11.90;73.90;;;;;;2374823;56;21019;-73
2022/04/06 08:39:40;;;;;;;25.58;13.38;;;11.80;73.70;;;;;;2375004;56;21027;-75
2022/04/06 08:42:10;;;;;;;20.70;12.27;;;11.80;73.70;;;;;;2375319;56;21015;-73
2022/04/06 08:44:37;;;;;;;22.80;11.18;;;11.80;73.80;;;;;;2375237;56;21015;-74
2022/04/06 08:47:06;;;;;;;22.95;12.77;;;11.80;73.60;;;;;;2375094;56;21098;-74
2022/04/06 08:49:36;;;;;;;22.13;11.35;;;11.80;73.30;;;;;;2629390;52;21110;-74
2022/04/06 08:52:05;;;;;;;18.98;11.73;;;11.90;73.00;;;;;;2375214;56;21107;-73
2022/04/06 08:54:33;;;;;;;24.55;12.77;;;11.80;73.30;;;;;;2374606;56;21119;-74
2022/04/06 08:57:00;;;;;;;26.40;13.07;;;11.90;72.60;;;;;;2373620;56;21107;-74
2022/04/06 08:59:27;;;;;;;25.25;12.65;;;11.90;72.70;;;;;;2372913;56;21617;-73
2022/04/06 09:01:56;;;;;;;18.37;11.73;;;11.90;73.00;;;;;;2374548;56;21103;-73
2022/04/06 09:04:24;;;;;;;21.27;13.62;;;11.90;73.30;;;;;;2374748;56;21118;-74
2022/04/06 09:06:53;;;;;;;19.10;11.73;;;11.90;73.60;;;;;;2371482;56;21039;-73
2022/04/06 09:09:24;;;;;;;24.45;12.48;;;11.90;73.60;;;;;;2371940;56;21095;-73
2022/04/06 09:11:52;;;;;;;21.65;10.38;;;12.00;73.40;;;;;;2371807;56;21027;-74
2022/04/06 09:14:33;;;;;;;16.45;10.73;;;12.00;73.00;;;;;;2372304;56;21091;-73
2022/04/06 09:17:05;;;;;;;19.42;11.27;;;12.00;73.40;;;;;;2371565;56;21094;-74
2022/04/06 09:19:37;;;;;;;23.48;12.98;;;12.10;72.90;;;;;;2373428;56;21082;-74
2022/04/06 09:22:07;;;;;;;24.85;12.57;;;12.00;72.80;;;;;;2372072;56;21121;-74
2022/04/06 09:24:34;;;;;;;15.45;9.73;;;12.10;72.60;;;;;;2374675;56;21105;-74
2022/04/06 09:27:03;;;;;;;17.80;10.70;;;12.00;72.20;;;;;;2371075;56;21022;-75
2022/04/06 09:29:31;;;;;;;16.40;11.48;;;12.00;72.50;;;;;;2372401;56;21067;-73
2022/04/06 09:32:07;;;;;;;17.77;10.60;;;12.00;72.90;;;;;;2625853;52;21035;-73
2022/04/06 09:34:34;;;;;;;18.00;9.70;;;12.00;73.20;;;;;;2372484;56;21086;-75
2022/04/06 09:37:22;;;;;;;16.48;9.15;;;12.00;72.80;;;;;;2374452;56;21118;-73
2022/04/06 09:39:50;;;;;;;17.62;9.75;;;12.00;73.30;;;;;;2374822;56;21078;-74
2022/04/06 09:42:21;;;;;;;18.75;9.65;;;12.00;73.50;;;;;;2374645;56;21019;-73
2022/04/06 09:47:38;;;;;;;19.52;9.90;;;12.10;73.30;;;;;;2374725;56;20982;-74
2022/04/06 09:50:12;;;;;;;23.38;10.93;;;12.00;73.60;;;;;;2628943;52;21269;-74
2022/04/06 09:52:39;;;;;;;20.02;10.27;;;12.00;73.30;;;;;;2373270;56;21031;-74
2022/04/06 09:55:09;;;;;;;15.88;9.80;;;12.00;73.60;;;;;;2374515;56;21130;-73
2022/04/06 09:57:42;;;;;;;16.40;9.02;;;12.10;74.60;;;;;;2374437;56;21078;-74
2022/04/06 10:00:12;;;;;;;17.40;9.45;;;12.10;73.60;;;;;;2375099;56;21030;-74
2022/04/06 10:02:42;;;;;;;19.30;10.32;;;12.10;73.80;;;;;;2374855;56;21077;-74
2022/04/06 10:05:13;;;;;;;18.50;10.52;;;12.10;73.60;;;;;;2374584;56;21039;-74
2022/04/06 10:07:43;;;;;;;21.30;12.40;;;12.10;74.00;;;;;;2628561;52;21612;-73
2022/04/06 10:10:12;;;;;;;20.60;11.95;;;12.10;74.70;;;;;;2374735;56;21035;-74
2022/04/06 10:12:40;;;;;;;17.85;10.40;;;12.10;75.30;;;;;;2374890;56;21031;-73
2022/04/06 10:15:08;;;;;;;14.93;9.32;;;12.10;74.70;;;;;;2375088;56;21102;-74
2022/04/06 10:17:36;;;;;;;14.10;7.82;;;12.10;75.50;;;;;;2374330;56;21027;-74
2022/04/06 10:20:12;;;;;;;18.37;9.65;;;12.10;73.80;;;;;;2375138;56;21660;-74
2022/04/06 10:22:48;;;;;;;24.55;8.68;;;12.10;74.50;;;;;;2374942;56;21023;-74
2022/04/06 10:25:22;;;;;;;18.12;9.65;;;12.10;74.20;;;;;;2374803;56;21018;-74
2022/04/06 10:27:52;;;;;;;;;;;12.10;74.20;;;;;;2378696;56;21063;-74
2022/04/06 10:30:23;;;;;;;12.98;7.85;;;12.20;72.80;;;;;;2374915;56;20081;-74
2022/04/06 10:32:51;;;;;;;20.00;9.55;;;12.10;73.30;;;;;;2375325;56;21075;-74
2022/04/06 10:35:24;;;;;;;16.12;10.13;;;12.10;74.10;;;;;;2374708;56;21055;-74
2022/04/06 10:38:12;;;;;;;14.23;9.10;;;12.10;74.60;;;;;;2375151;56;21023;-73
2022/04/06 10:40:59;;;;;;;16.60;8.38;;;12.10;74.90;;;;;;2375285;56;21162;-74
2022/04/06 10:43:50;;;;;;;12.30;7.87;;;12.10;74.40;;;;;;2375026;56;21077;-73
2022/04/06 10:46:33;;;;;;;16.77;8.70;;;12.10;74.70;;;;;;2374712;56;21117;-74
2022/04/06 10:49:09;;;;;;;;;;;12.10;75.20;;;;;;2378765;56;21066;-74
2022/04/06 10:51:38;;;;;;;13.30;8.38;;;12.10;75.10;;;;;;2374919;56;20304;-73
2022/04/06 10:54:40;;;;;;;17.62;9.27;;;12.10;75.10;;;;;;2375175;56;21015;-74
2022/04/06 10:57:23;;;;;;;16.58;10.07;;;12.00;75.20;;;;;;2351804;56;21312;-74
2022/04/06 11:00:14;;;;;;;15.43;8.75;;;12.00;75.00;;;;;;2375048;56;21034;-74
2022/04/06 11:02:50;;;;;;;10.48;8.75;;;12.10;75.40;;;;;;2375037;56;21141;-73
2022/04/06 11:05:42;;;;;;;17.02;9.00;;;12.20;74.60;;;;;;2374526;56;21094;-74
2022/04/06 11:11:32;;;;;;;12.70;8.38;;;12.10;74.90;;;;;;2374911;56;21047;-74
2022/04/06 11:14:00;;;;;;;14.65;8.77;;;12.10;74.70;;;;;;2375132;56;21023;-74
2022/04/06 11:16:44;;;;;;;12.98;8.38;;;12.00;75.00;;;;;;2374643;56;21588;-75
2022/04/06 11:19:12;;;;;;;15.15;9.18;;;12.00;75.10;;;;;;2375313;56;21081;-75
2022/04/06 11:21:54;;;;;;;12.40;8.38;;;12.00;75.80;;;;;;2628848;52;21077;-75
2022/04/06 11:24:23;;;;;;;15.52;7.93;;;12.00;75.00;;;;;;2374372;56;21102;-75
2022/04/06 11:26:51;;;;;;;17.35;9.80;;;12.00;75.20;;;;;;2373546;56;21023;-75
2022/04/06 11:29:19;;;;;;;14.30;8.82;;;12.00;75.80;;;;;;2374790;56;21031;-75
2022/04/06 11:32:00;;;;;;;18.67;10.55;;;12.00;75.70;;;;;;2375420;56;21022;-75
2022/04/06 11:34:36;;;;;;;17.45;10.32;;;12.00;75.90;;;;;;2375202;56;21003;-74
2022/04/06 11:37:05;;;;;;;16.95;9.68;;;12.00;75.50;;;;;;2374790;56;21086;-74
2022/04/06 11:39:33;;;;;;;11.98;9.77;;;12.10;75.60;;;;;;2375384;56;21023;-74
2022/04/06 11:42:02;;;;;;;14.63;9.20;;;12.10;75.20;;;;;;2373409;56;21078;-74
2022/04/06 11:44:30;;;;;;;16.83;8.18;;;12.10;74.50;;;;;;2374661;56;21038;-74
2022/04/06 11:46:58;;;;;;;20.02;9.77;;;12.10;74.30;;;;;;2374465;56;21031;-74
2022/04/06 11:49:28;;;;;;;13.27;7.85;;;12.20;73.50;;;;;;2375076;56;21026;-74
2022/04/06 11:51:57;;;;;;;16.67;9.38;;;12.20;73.30;;;;;;2375148;56;21031;-74
2022/04/06 11:54:25;;;;;;;15.35;8.82;;;12.20;73.70;;;;;;2374709;56;21066;-74
2022/04/06 11:56:53;;;;;;;18.58;8.63;;;12.20;73.50;;;;;;2374283;56;21023;-74
2022/04/06 11:59:23;;;;;;;12.27;8.48;;;12.20;73.30;;;;;;2374682;56;21023;-74
2022/04/06 12:01:51;;;;;;;15.73;9.13;;;12.10;72.60;;;;;;2375205;56;21047;-74
2022/04/06 12:04:21;;;;;;;14.80;8.65;;;12.10;73.20;;;;;;2374686;56;21106;-74
2022/04/06 12:06:49;;;;;;;12.32;7.75;;;12.10;73.20;;;;;;2374426;56;21038;-74
2022/04/06 12:09:16;;;;;;;17.12;8.30;;;12.10;73.30;;;;;;2375114;56;21082;-73
2022/04/06 12:11:48;;;;;;;13.93;9.20;;;12.10;73.10;;;;;;2375108;56;21107;-74
2022/04/06 12:14:15;;;;;;;18.87;8.43;;;12.20;73.40;;;;;;2375189;56;21042;-74
2022/04/06 12:16:43;;;;;;;14.82;8.60;;;12.30;73.70;;;;;;2374264;56;21335;-74
2022/04/06 12:19:13;;;;;;;14.63;8.50;;;12.30;74.40;;;;;;2628079;52;21031;-74
2022/04/06 12:21:42;;;;;;;12.20;7.45;;;12.30;73.50;;;;;;2375139;56;21118;-74
2022/04/06 12:24:11;;;;;;;15.13;7.80;;;12.30;73.10;;;;;;2374800;56;21086;-74
2022/04/06 12:26:45;;;;;;;14.30;8.23;;;12.30;73.60;;;;;;2374329;56;21178;-74
2022/04/06 12:29:16;;;;;;;13.23;7.40;;;12.30;73.80;;;;;;2374738;56;21521;-74
2022/04/06 12:31:44;;;;;;;14.38;7.55;;;12.30;73.20;;;;;;2375446;56;21023;-74
2022/04/06 12:34:28;;;;;;;13.82;8.30;;;12.30;73.00;;;;;;2374984;56;21035;-75
2022/04/06 12:36:55;;;;;;;17.02;8.20;;;12.30;73.50;;;;;;2374876;56;21086;-74
2022/04/06 12:39:22;;;;;;;10.13;7.35;;;12.30;73.50;;;;;;2375306;56;21118;-75
2022/04/06 12:41:58;;;;;;;15.55;8.68;;;12.30;73.60;;;;;;2375132;56;21011;-74
2022/04/06 12:44:26;;;;;;;14.90;9.40;;;12.30;73.90;;;;;;2375427;56;21057;-74
2022/04/06 12:46:54;;;;;;;14.18;8.85;;;12.30;73.60;;;;;;2628417;52;21059;-74
2022/04/06 12:49:27;;;;;;;16.12;8.70;;;12.30;73.80;;;;;;2374297;56;21011;-74
2022/04/06 12:55:05;;;;;;;17.48;9.05;;;12.30;73.80;;;;;;2358574;56;22054;-74
2022/04/06 12:57:32;;;;;;;;;;;12.30;73.50;;;;;;2378873;56;21114;-73
2022/04/06 13:00:01;;;;;;;13.27;9.70;;;12.40;73.20;;;;;;2374088;56;20069;-74
2022/04/06 13:02:30;;;;;;;17.10;9.82;;;12.30;73.20;;;;;;2375579;56;21042;-74
2022/04/06 13:05:01;;;;;;;13.20;9.13;;;12.30;73.50;;;;;;2374842;56;21631;-74
2022/04/06 13:07:29;;;;;;;19.52;9.82;;;12.30;73.20;;;;;;2375168;56;21035;-74
2022/04/06 13:09:58;;;;;;;17.90;8.93;;;12.40;73.40;;;;;;2375230;56;21055;-75
2022/04/06 13:12:26;;;;;;;19.30;9.23;;;12.40;73.60;;;;;;2375351;56;21054;-74
2022/04/06 13:14:54;;;;;;;18.65;10.15;;;12.40;73.90;;;;;;2374486;56;21042;-74
2022/04/06 13:17:21;;;;;;;21.02;9.77;;;12.40;73.50;;;;;;2373631;56;21058;-74
2022/04/06 13:19:49;;;;;;;11.85;7.93;;;12.40;73.30;;;;;;2375049;56;21082;-74
2022/04/06 13:22:17;;;;;;;14.80;9.40;;;12.50;73.50;;;;;;2375252;56;21023;-74
2022/04/06 13:24:45;;;;;;;18.90;8.35;;;12.50;72.70;;;;;;2375051;56;21082;-74
2022/04/06 13:27:13;;;;;;;14.00;7.75;;;12.50;72.70;;;;;;2374988;56;21031;-74
2022/04/06 13:29:41;;;;;;;15.18;8.68;;;12.50;72.70;;;;;;2375292;56;21098;-74
2022/04/06 13:32:09;;;;;;;16.85;8.57;;;12.50;72.90;;;;;;2375222;56;21038;-74
2022/04/06 13:34:37;;;;;;;12.70;7.30;;;12.50;72.70;;;;;;2374965;56;21098;-74
2022/04/06 13:37:05;;;;;;;15.55;9.27;;;12.50;72.70;;;;;;2374860;56;21581;-74
2022/04/06 13:39:32;;;;;;;21.35;9.70;;;12.50;72.70;;;;;;2375246;56;21047;-74
2022/04/06 13:42:00;;;;;;;17.23;8.27;;;12.50;73.30;;;;;;2375028;56;21130;-74
2022/04/06 13:44:30;;;;;;;13.95;7.22;;;12.50;73.20;;;;;;2375222;56;21026;-74
2022/04/06 13:46:59;;;;;;;16.87;7.50;;;12.60;73.50;;;;;;2374225;56;21046;-74
2022/04/06 13:49:26;;;;;;;11.48;7.22;;;12.50;72.50;;;;;;2375348;56;21115;-73
2022/04/06 13:51:55;;;;;;;14.23;7.80;;;12.60;72.60;;;;;;2375175;56;21040;-74
2022/04/06 13:54:23;;;;;;;16.12;8.40;;;12.60;73.00;;;;;;2375117;56;21101;-74
2022/04/06 13:57:10;;;;;;;10.18;6.18;;;12.60;73.20;;;;;;2374506;56;21157;-74
2022/04/06 13:59:37;;;;;;;14.52;7.75;;;12.60;73.40;;;;;;2146124;63;21162;-72
2022/04/06 14:02:04;;;;;;;12.50;7.20;;;12.60;73.00;;;;;;2145805;63;21164;-74
2022/04/06 14:04:32;;;;;;;11.80;7.03;;;12.60;73.00;;;;;;2148690;59;21193;-74